Time;durP1;ratioP1;P1;durP2;ratioP2;P2;SDS_P1;SDS_P2;PMS_P1;PMS_P2;Temp;Humidity;BMP_temperature;BMP_pressure;BME280_temperature;BME280_humidity;BME280_pressure;Samples;Min_cycle;Max_cycle;Signal;HPM_P1;HPM_P2
2022/06/06 00:00:47;;;;;;;70.90;38.78;;;16.80;99.90;;;;;;4080261;29;20107;-65
2022/06/06 00:02:49;;;;;;;68.78;41.35;;;16.80;99.90;;;;;;4080827;29;20437;-65
2022/06/06 00:04:49;;;;;;;67.72;39.00;;;16.80;99.90;;;;;;4081355;29;20039;-65
2022/06/06 00:06:58;;;;;;;64.93;38.63;;;16.80;99.90;;;;;;4079585;29;20039;-65
2022/06/06 00:08:59;;;;;;;68.93;39.97;;;16.80;99.90;;;;;;4081431;29;20040;-65
2022/06/06 00:10:59;;;;;;;68.53;41.05;;;16.80;99.90;;;;;;4080922;29;20450;-65
2022/06/06 00:13:00;;;;;;;73.50;44.28;;;16.80;99.90;;;;;;4081337;29;20036;-65
2022/06/06 00:15:01;;;;;;;84.20;45.05;;;16.70;99.90;;;;;;4081023;29;20056;-65
2022/06/06 00:17:02;;;;;;;70.57;42.20;;;16.70;99.90;;;;;;4080707;29;20031;-65
2022/06/06 00:19:03;;;;;;;73.53;42.15;;;16.70;99.90;;;;;;4081404;29;20031;-65
2022/06/06 00:21:07;;;;;;;74.93;44.00;;;16.70;99.90;;;;;;4080645;29;20114;-65
2022/06/06 00:23:07;;;;;;;75.10;42.15;;;16.70;99.90;;;;;;4080967;29;20126;-66
2022/06/06 00:25:09;;;;;;;69.00;40.72;;;16.60;99.90;;;;;;4079349;29;20523;-66
2022/06/06 00:27:09;;;;;;;63.28;38.50;;;16.60;99.90;;;;;;4081154;29;20047;-65
2022/06/06 00:29:14;;;;;;;65.18;38.38;;;16.60;99.90;;;;;;4081369;29;20040;-65
2022/06/06 00:35:56;;;;;;;67.70;38.35;;;16.60;99.90;;;;;;4083295;29;20032;-65
2022/06/06 00:37:57;;;;;;;66.32;37.90;;;16.60;99.90;;;;;;4084219;29;20102;-65
2022/06/06 00:39:58;;;;;;;63.30;37.45;;;16.60;99.90;;;;;;4084251;29;20032;-65
2022/06/06 00:41:59;;;;;;;65.32;38.70;;;16.60;99.90;;;;;;4083538;29;20114;-65
2022/06/06 00:44:12;;;;;;;68.07;40.10;;;16.60;99.90;;;;;;4084363;29;20109;-65
2022/06/06 00:46:12;;;;;;;;;;;16.60;99.90;;;;;;4083640;29;20036;-64
2022/06/06 00:48:39;;;;;;;70.68;39.40;;;16.60;99.90;;;;;;4084186;29;19921;-65
2022/06/06 00:51:14;;;;;;;64.18;37.97;;;16.60;99.90;;;;;;4083177;29;20036;-66
2022/06/06 00:53:20;;;;;;;66.80;40.08;;;16.70;99.90;;;;;;4061895;29;20039;-67
2022/06/06 00:55:29;;;;;;;64.97;38.75;;;16.60;99.90;;;;;;4083496;29;20043;-65
2022/06/06 00:57:34;;;;;;;66.45;39.03;;;16.60;99.90;;;;;;4083986;29;20402;-65
2022/06/06 00:59:37;;;;;;;70.55;40.63;;;16.60;99.90;;;;;;4084056;29;20087;-65
2022/06/06 01:01:40;;;;;;;59.75;37.10;;;16.60;99.90;;;;;;4082976;29;20035;-66
2022/06/06 01:03:41;;;;;;;63.20;38.30;;;16.60;99.90;;;;;;4083784;29;20039;-65
2022/06/06 01:05:43;;;;;;;65.50;37.60;;;16.60;99.90;;;;;;4083472;29;20054;-66
2022/06/06 01:07:44;;;;;;;67.55;38.78;;;16.70;99.90;;;;;;4083600;29;20032;-65
2022/06/06 01:09:45;;;;;;;59.42;36.67;;;16.60;99.90;;;;;;4083782;29;20036;-65
2022/06/06 01:11:50;;;;;;;65.32;38.72;;;16.60;99.90;;;;;;4082813;29;20043;-66
2022/06/06 01:13:53;;;;;;;63.83;38.08;;;16.50;99.90;;;;;;4083754;29;20036;-65
2022/06/06 01:16:12;;;;;;;61.38;37.38;;;16.60;99.90;;;;;;4083091;29;20530;-65
2022/06/06 01:18:26;;;;;;;60.90;37.78;;;16.60;99.90;;;;;;4096912;28;20103;-66
2022/06/06 01:20:32;;;;;;;60.63;37.95;;;16.60;99.90;;;;;;4096619;29;20039;-65
2022/06/06 01:23:11;;;;;;;64.28;37.08;;;16.60;99.90;;;;;;4090511;28;20028;-65
2022/06/06 01:25:23;;;;;;;63.25;36.35;;;16.50;99.90;;;;;;4081739;29;20435;-66
2022/06/06 01:27:49;;;;;;;56.03;35.05;;;16.60;99.90;;;;;;4082757;28;20114;-65
2022/06/06 01:29:57;;;;;;;60.92;35.45;;;16.60;99.90;;;;;;4082574;28;20043;-65
2022/06/06 01:32:08;;;;;;;63.72;36.03;;;16.60;99.90;;;;;;4082548;28;20067;-65
2022/06/06 01:34:10;;;;;;;58.58;34.78;;;16.50;99.90;;;;;;4083153;28;20039;-65
2022/06/06 01:36:11;;;;;;;60.15;34.78;;;16.60;99.90;;;;;;4082665;28;20167;-65
2022/06/06 01:38:13;;;;;;;56.15;34.55;;;16.60;99.90;;;;;;4083114;28;20483;-64
2022/06/06 01:40:16;;;;;;;;;;;16.60;99.90;;;;;;4083188;28;20039;-66
2022/06/06 01:42:38;;;;;;;57.13;34.00;;;16.50;99.90;;;;;;4081380;29;20311;-66
2022/06/06 01:45:04;;;;;;;57.08;34.80;;;16.50;99.90;;;;;;4082547;28;20498;-66
2022/06/06 01:47:09;;;;;;;64.15;36.08;;;16.50;99.90;;;;;;4081148;29;20039;-65
2022/06/06 01:49:12;;;;;;;60.20;34.03;;;16.50;99.90;;;;;;4082798;29;20038;-65
2022/06/06 01:51:16;;;;;;;55.95;32.90;;;16.60;99.90;;;;;;4081066;29;20028;-65
2022/06/06 01:53:20;;;;;;;52.58;32.70;;;16.50;99.90;;;;;;4082554;29;20510;-66
2022/06/06 01:55:21;;;;;;;56.08;33.90;;;16.50;99.90;;;;;;4082522;29;20036;-65
2022/06/06 01:57:24;;;;;;;55.05;33.55;;;16.50;99.90;;;;;;4083069;29;20043;-65
2022/06/06 01:59:25;;;;;;;51.33;30.85;;;16.50;99.90;;;;;;4083174;28;20086;-65
2022/06/06 02:01:26;;;;;;;51.85;31.90;;;16.50;99.90;;;;;;4082472;28;20044;-65
2022/06/06 02:03:26;;;;;;;49.92;31.25;;;16.50;99.90;;;;;;4081972;28;20499;-66
2022/06/06 02:05:28;;;;;;;52.08;31.13;;;16.50;99.90;;;;;;4082484;29;20130;-66
2022/06/06 02:07:28;;;;;;;44.00;29.15;;;16.50;99.90;;;;;;4082883;29;20087;-65
2022/06/06 02:09:31;;;;;;;55.17;31.15;;;16.50;99.90;;;;;;4082982;29;20483;-65
2022/06/06 02:11:32;;;;;;;45.55;28.48;;;16.50;99.90;;;;;;4082430;29;20171;-66
2022/06/06 02:13:32;;;;;;;49.53;30.10;;;16.50;99.90;;;;;;4082760;28;20419;-65
2022/06/06 02:15:33;;;;;;;51.25;30.77;;;16.50;99.90;;;;;;4082519;28;20496;-65
2022/06/06 02:17:34;;;;;;;47.17;29.58;;;16.50;99.90;;;;;;4082739;28;20040;-66
2022/06/06 02:19:35;;;;;;;45.38;27.95;;;16.40;99.90;;;;;;4082922;28;20042;-65
2022/06/06 02:21:35;;;;;;;44.90;27.45;;;16.40;99.90;;;;;;4082056;28;20375;-65
2022/06/06 02:23:36;;;;;;;41.55;25.48;;;16.40;99.90;;;;;;4082727;28;20044;-65
2022/06/06 02:25:37;;;;;;;40.85;25.70;;;16.50;99.90;;;;;;4082143;28;20038;-65
2022/06/06 02:27:40;;;;;;;43.75;25.85;;;16.50;99.90;;;;;;4082415;28;20513;-66
2022/06/06 02:29:41;;;;;;;42.60;26.35;;;16.50;99.90;;;;;;4082562;28;20035;-65
2022/06/06 02:31:41;;;;;;;40.22;25.02;;;16.40;99.90;;;;;;4080354;29;20040;-66
2022/06/06 02:33:42;;;;;;;43.17;26.10;;;16.40;99.90;;;;;;4082442;28;20375;-66
2022/06/06 02:35:43;;;;;;;40.00;24.15;;;16.40;99.90;;;;;;4081871;28;20090;-66
2022/06/06 02:37:46;;;;;;;36.97;22.63;;;16.40;99.90;;;;;;4082352;28;20035;-65
2022/06/06 02:39:47;;;;;;;39.90;24.55;;;16.40;99.90;;;;;;4082109;28;20113;-69
2022/06/06 02:41:47;;;;;;;41.10;24.50;;;16.40;99.90;;;;;;4081812;28;20154;-67
2022/06/06 02:43:48;;;;;;;38.97;24.25;;;16.50;99.90;;;;;;4082094;28;20036;-66
2022/06/06 02:45:50;;;;;;;39.63;24.25;;;16.40;99.90;;;;;;4081671;29;20039;-65
2022/06/06 02:47:53;;;;;;;42.33;25.30;;;16.40;99.90;;;;;;4080944;29;20039;-66
2022/06/06 02:49:54;;;;;;;33.78;21.98;;;16.40;99.90;;;;;;4082275;29;20091;-65
2022/06/06 02:51:55;;;;;;;38.10;22.58;;;16.50;99.90;;;;;;4081934;29;20039;-66
2022/06/06 02:53:55;;;;;;;35.88;22.60;;;16.50;99.90;;;;;;4078509;29;20059;-65
2022/06/06 02:55:58;;;;;;;38.85;23.25;;;16.50;99.90;;;;;;4081630;29;20042;-65
2022/06/06 02:57:59;;;;;;;;;;;16.50;99.90;;;;;;4082397;29;20069;-65
2022/06/06 03:00:00;;;;;;;32.15;20.35;;;16.50;99.90;;;;;;4081700;29;19918;-65
2022/06/06 03:02:02;;;;;;;36.80;21.73;;;16.60;99.90;;;;;;4080815;29;20391;-65
2022/06/06 03:04:03;;;;;;;36.97;21.85;;;16.60;99.90;;;;;;4081362;29;20502;-65
2022/06/06 03:06:37;;;;;;;35.45;21.98;;;16.60;99.90;;;;;;4081431;29;20040;-65
2022/06/06 03:09:15;;;;;;;39.15;23.85;;;16.60;99.90;;;;;;4081804;29;20030;-65
2022/06/06 03:11:19;;;;;;;36.28;23.08;;;16.60;99.90;;;;;;4080940;29;20043;-66
2022/06/06 03:13:55;;;;;;;35.90;22.50;;;16.60;99.90;;;;;;4081797;29;20041;-65
2022/06/06 03:21:26;;;;;;;39.40;23.25;;;16.70;99.90;;;;;;4080698;29;20036;-65
2022/06/06 03:23:57;;;;;;;38.83;23.70;;;16.70;99.90;;;;;;4081740;29;20047;-66
2022/06/06 03:26:34;;;;;;;33.00;20.38;;;16.60;99.90;;;;;;4080913;29;20447;-65
2022/06/06 03:28:48;;;;;;;36.35;21.73;;;16.60;99.90;;;;;;4081449;29;20038;-65
2022/06/06 03:31:27;;;;;;;35.67;21.25;;;16.50;99.90;;;;;;4080686;29;20035;-66
2022/06/06 03:33:33;;;;;;;32.13;19.83;;;16.50;99.90;;;;;;4081659;29;20043;-66
2022/06/06 03:35:56;;;;;;;27.67;16.92;;;16.40;99.90;;;;;;4081158;29;20031;-65
2022/06/06 03:37:57;;;;;;;;;;;16.50;99.90;;;;;;4081924;29;20443;-65
2022/06/06 03:40:19;;;;;;;25.17;15.77;;;16.40;99.90;;;;;;4081613;29;19998;-66
2022/06/06 03:42:41;;;;;;;23.08;14.55;;;16.50;99.90;;;;;;4081234;29;20059;-66
2022/06/06 03:45:06;;;;;;;27.63;16.13;;;16.50;99.90;;;;;;4081331;29;20086;-65
2022/06/06 03:47:43;;;;;;;24.08;14.48;;;16.50;99.90;;;;;;4081074;29;20395;-65
2022/06/06 03:50:13;;;;;;;23.70;14.73;;;16.50;99.90;;;;;;4080984;29;20059;-65
2022/06/06 03:52:54;;;;;;;26.15;14.50;;;16.50;99.90;;;;;;4081102;29;20036;-65
2022/06/06 03:55:17;;;;;;;21.40;13.00;;;16.40;99.90;;;;;;4047657;29;20036;-65
2022/06/06 03:57:24;;;;;;;21.05;12.60;;;16.40;99.90;;;;;;4047908;29;20068;-66
2022/06/06 03:59:28;;;;;;;23.77;14.45;;;16.40;99.90;;;;;;4053437;29;20052;-66
2022/06/06 04:01:31;;;;;;;24.80;13.80;;;16.50;99.90;;;;;;4078559;29;20611;-66
2022/06/06 04:03:33;;;;;;;18.80;12.75;;;16.40;99.90;;;;;;4081193;29;20032;-65
2022/06/06 04:05:37;;;;;;;22.10;13.05;;;16.40;99.90;;;;;;4080882;29;20032;-65
2022/06/06 04:07:38;;;;;;;20.35;12.23;;;16.30;99.90;;;;;;4081435;29;20091;-66
2022/06/06 04:09:39;;;;;;;16.60;11.45;;;16.40;99.90;;;;;;4080317;28;20435;-66
2022/06/06 04:12:07;;;;;;;21.58;13.07;;;16.40;99.90;;;;;;4081752;28;20487;-66
2022/06/06 04:14:24;;;;;;;19.48;12.57;;;16.30;99.90;;;;;;4084231;28;20028;-65
2022/06/06 04:16:28;;;;;;;21.50;12.75;;;16.30;99.90;;;;;;4083946;28;20550;-66
2022/06/06 04:18:31;;;;;;;21.70;13.82;;;16.30;99.90;;;;;;4082434;29;20040;-66
2022/06/06 04:20:58;;;;;;;21.70;13.02;;;16.20;99.90;;;;;;4083013;28;20042;-66
2022/06/06 04:23:30;;;;;;;22.98;12.95;;;16.30;99.90;;;;;;4084076;29;20095;-66
2022/06/06 04:26:05;;;;;;;20.45;13.00;;;16.30;99.90;;;;;;4083559;29;20055;-65
2022/06/06 04:28:14;;;;;;;23.17;13.10;;;16.20;99.90;;;;;;4082583;29;20032;-65
2022/06/06 04:30:18;;;;;;;18.52;12.38;;;16.20;99.90;;;;;;4082725;28;20035;-66
2022/06/06 04:32:50;;;;;;;19.17;12.35;;;16.20;99.90;;;;;;4082685;29;20047;-68
2022/06/06 04:35:09;;;;;;;19.17;11.25;;;16.20;99.90;;;;;;4083964;29;20212;-67
2022/06/06 04:37:33;;;;;;;19.45;11.57;;;16.20;99.90;;;;;;4084211;29;20044;-65
2022/06/06 04:39:47;;;;;;;18.55;11.30;;;16.20;99.90;;;;;;4072568;28;20410;-66
2022/06/06 04:41:59;;;;;;;17.67;11.52;;;16.20;99.90;;;;;;4082949;28;20039;-66
2022/06/06 04:44:28;;;;;;;18.77;11.25;;;16.30;99.90;;;;;;4084181;29;20074;-66
2022/06/06 04:46:42;;;;;;;18.45;11.75;;;16.30;99.90;;;;;;4083282;29;20123;-66
2022/06/06 04:48:44;;;;;;;20.10;12.27;;;16.30;99.90;;;;;;4083212;28;20036;-66
2022/06/06 04:50:45;;;;;;;17.70;11.80;;;16.20;99.90;;;;;;4083771;28;20036;-66
2022/06/06 04:52:50;;;;;;;16.98;10.73;;;16.20;99.90;;;;;;4083773;28;20046;-66
2022/06/06 04:54:53;;;;;;;19.77;12.20;;;16.30;99.90;;;;;;4083738;28;20054;-67
2022/06/06 04:56:55;;;;;;;15.85;11.43;;;16.20;99.90;;;;;;4082271;28;20036;-66
2022/06/06 04:58:59;;;;;;;20.13;12.20;;;16.20;99.90;;;;;;4080527;29;20125;-66
2022/06/06 05:01:02;;;;;;;20.50;12.43;;;16.20;99.90;;;;;;4081921;29;20279;-65
2022/06/06 05:03:04;;;;;;;20.30;10.95;;;16.20;99.90;;;;;;4082163;29;20099;-66
2022/06/06 05:05:05;;;;;;;18.70;10.87;;;16.20;99.90;;;;;;4081890;29;20027;-66
2022/06/06 05:07:21;;;;;;;16.55;10.20;;;16.20;99.90;;;;;;4082025;29;20711;-66
2022/06/06 05:09:36;;;;;;;14.38;9.57;;;16.20;99.90;;;;;;4080950;29;20032;-66
2022/06/06 05:12:00;;;;;;;21.17;11.98;;;16.20;99.90;;;;;;4083282;29;20032;-65
2022/06/06 05:14:41;;;;;;;16.85;10.55;;;16.20;99.90;;;;;;4078695;29;20402;-65
2022/06/06 05:17:26;;;;;;;17.88;9.88;;;16.20;99.90;;;;;;4081779;29;20071;-67
2022/06/06 05:20:04;;;;;;;16.27;9.32;;;16.20;99.90;;;;;;4077070;28;20070;-66
2022/06/06 05:22:17;;;;;;;14.68;9.10;;;16.20;99.90;;;;;;4081096;28;20087;-66
2022/06/06 05:24:32;;;;;;;15.40;10.18;;;16.20;99.90;;;;;;4079801;29;20588;-65
2022/06/06 05:26:55;;;;;;;14.73;8.82;;;16.20;99.90;;;;;;4078785;29;20032;-66
2022/06/06 05:29:17;;;;;;;16.02;9.75;;;16.20;99.90;;;;;;4078728;28;20040;-66
2022/06/06 05:31:57;;;;;;;14.13;8.38;;;16.10;99.90;;;;;;4080628;29;20515;-66
2022/06/06 05:34:10;;;;;;;15.75;9.40;;;16.20;99.90;;;;;;4066363;29;20083;-66
2022/06/06 05:36:24;;;;;;;13.98;8.40;;;16.20;99.90;;;;;;4079521;29;20032;-66
2022/06/06 05:38:28;;;;;;;11.20;7.97;;;16.20;99.90;;;;;;4081156;29;20042;-66
2022/06/06 05:40:45;;;;;;;12.45;7.90;;;16.20;99.90;;;;;;4079110;29;20399;-66
2022/06/06 05:42:58;;;;;;;12.27;8.18;;;16.30;99.90;;;;;;4082247;28;20376;-66
2022/06/06 05:45:14;;;;;;;14.10;8.43;;;16.30;99.90;;;;;;4098244;28;20035;-66
2022/06/06 05:47:24;;;;;;;13.20;7.93;;;16.40;99.90;;;;;;4098984;28;20314;-66
2022/06/06 05:49:38;;;;;;;15.82;8.70;;;16.50;99.90;;;;;;4084745;28;20409;-66
2022/06/06 05:52:12;;;;;;;11.45;7.68;;;16.70;99.90;;;;;;4082753;28;20031;-66
2022/06/06 05:54:36;;;;;;;12.65;7.40;;;16.90;99.90;;;;;;4082808;28;20042;-66
2022/06/06 05:56:55;;;;;;;12.57;7.38;;;17.20;99.90;;;;;;4084159;28;20048;-66
2022/06/06 05:59:23;;;;;;;10.18;6.43;;;17.50;99.90;;;;;;4081650;28;20399;-66
2022/06/06 06:01:48;;;;;;;11.73;7.57;;;17.80;99.90;;;;;;4081236;28;20047;-67
2022/06/06 06:04:20;;;;;;;10.23;6.65;;;18.10;99.90;;;;;;4080243;28;20038;-66
2022/06/06 06:06:40;;;;;;;10.05;6.85;;;18.40;99.90;;;;;;4076730;28;20048;-67
2022/06/06 06:09:18;;;;;;;10.35;6.97;;;18.80;99.90;;;;;;4069143;29;20046;-66
2022/06/06 06:11:41;;;;;;;10.60;6.63;;;19.00;99.90;;;;;;4078682;29;20436;-66
2022/06/06 06:13:51;;;;;;;;;;;19.10;99.90;;;;;;4085522;28;20423;-68
2022/06/06 06:15:52;;;;;;;11.50;6.25;;;19.30;99.90;;;;;;4080521;29;19962;-66
2022/06/06 06:17:55;;;;;;;7.35;5.40;;;19.00;99.90;;;;;;4081645;28;20043;-66
2022/06/06 06:20:00;;;;;;;;;;;18.90;99.90;;;;;;4082660;28;20487;-66
2022/06/06 06:22:03;;;;;;;10.55;6.45;;;18.80;99.90;;;;;;4079525;28;19969;-66
2022/06/06 06:24:09;;;;;;;10.13;6.60;;;18.70;99.90;;;;;;4081743;28;20042;-67
2022/06/06 06:26:11;;;;;;;10.52;6.53;;;18.50;99.90;;;;;;4082176;29;20082;-67
2022/06/06 06:28:12;;;;;;;;;;;18.40;99.90;;;;;;4083008;29;20039;-67
2022/06/06 06:30:14;;;;;;;9.43;6.20;;;18.30;99.90;;;;;;4081188;28;20282;-67
2022/06/06 06:32:40;;;;;;;11.23;6.07;;;18.20;99.90;;;;;;4080365;28;20063;-66
2022/06/06 06:35:31;;;;;;;9.27;6.43;;;18.00;99.90;;;;;;4074443;28;20046;-66
2022/06/06 06:37:42;;;;;;;10.13;5.85;;;17.90;99.90;;;;;;4065207;29;20063;-66
2022/06/06 06:40:13;;;;;;;7.25;4.80;;;17.80;99.90;;;;;;4073754;28;20099;-67
2022/06/06 06:42:28;;;;;;;7.97;4.82;;;17.80;99.90;;;;;;4081064;29;20542;-67
2022/06/06 06:44:39;;;;;;;8.80;4.50;;;17.80;99.90;;;;;;4074354;28;20039;-66
2022/06/06 06:46:45;;;;;;;7.45;4.47;;;17.90;99.90;;;;;;4079353;29;20119;-66
2022/06/06 06:48:51;;;;;;;7.38;4.43;;;17.90;99.90;;;;;;4079659;29;20119;-66
2022/06/06 06:50:59;;;;;;;6.57;4.28;;;17.90;99.90;;;;;;4078359;28;20042;-67
2022/06/06 06:53:02;;;;;;;5.18;3.85;;;18.00;99.90;;;;;;4069193;28;20052;-66
2022/06/06 06:55:28;;;;;;;6.68;3.80;;;18.00;99.90;;;;;;4081959;29;20086;-67
2022/06/06 06:57:47;;;;;;;6.07;4.18;;;18.00;99.90;;;;;;4080758;29;20051;-66
2022/06/06 06:59:56;;;;;;;6.55;3.83;;;17.90;99.90;;;;;;4081475;29;20047;-66
2022/06/06 07:09:59;;;;;;;6.03;3.42;;;18.30;99.90;;;;;;4077158;28;20275;-66
2022/06/06 07:12:06;;;;;;;;;;;18.30;99.90;;;;;;4080701;28;20090;-65
2022/06/06 07:14:33;;;;;;;7.65;3.17;;;18.40;99.90;;;;;;4081092;29;19934;-66
2022/06/06 07:16:37;;;;;;;5.70;3.13;;;18.50;99.90;;;;;;4078680;29;20480;-66
2022/06/06 07:18:40;;;;;;;5.22;3.20;;;18.50;99.90;;;;;;4080389;28;20435;-66
2022/06/06 07:20:42;;;;;;;;;;;18.50;99.90;;;;;;4081953;28;20095;-66
2022/06/06 07:22:59;;;;;;;7.95;3.38;;;18.60;99.90;;;;;;4080496;28;19911;-68
2022/06/06 07:25:01;;;;;;;4.50;2.50;;;18.50;99.90;;;;;;4081651;28;20402;-66
2022/06/06 07:27:02;;;;;;;6.57;3.43;;;18.50;99.90;;;;;;4080467;29;20488;-65
2022/06/06 07:29:03;;;;;;;7.78;2.97;;;18.60;99.90;;;;;;4081831;28;20379;-66
2022/06/06 07:31:24;;;;;;;4.07;2.70;;;18.60;99.90;;;;;;4081186;28;20043;-65
2022/06/06 07:33:44;;;;;;;13.52;2.70;;;18.60;99.90;;;;;;4076542;29;20042;-66
2022/06/06 07:36:19;;;;;;;3.25;2.30;;;18.60;99.90;;;;;;4076712;29;20031;-65
2022/06/06 07:38:46;;;;;;;3.30;2.45;;;18.70;99.90;;;;;;4058793;28;20032;-66
2022/06/06 07:41:14;;;;;;;5.78;2.42;;;18.70;99.90;;;;;;4078642;29;20035;-66
2022/06/06 07:43:20;;;;;;;5.18;2.70;;;18.70;99.90;;;;;;4079427;29;20036;-66
2022/06/06 07:45:40;;;;;;;4.63;2.47;;;18.70;99.90;;;;;;4079820;28;20495;-66
2022/06/06 07:48:13;;;;;;;3.85;2.45;;;18.70;99.90;;;;;;4080207;28;20050;-66
2022/06/06 07:50:24;;;;;;;4.63;2.67;;;18.80;99.90;;;;;;4075626;29;20130;-66
2022/06/06 07:52:48;;;;;;;4.75;2.53;;;18.80;99.90;;;;;;4065722;29;20487;-67
2022/06/06 07:55:08;;;;;;;4.47;1.98;;;18.80;99.90;;;;;;4076069;28;20050;-66
2022/06/06 07:57:53;;;;;;;4.25;2.63;;;18.90;99.90;;;;;;4080770;28;20058;-66
2022/06/06 07:59:59;;;;;;;3.80;2.00;;;19.00;99.90;;;;;;4078151;29;20035;-66
2022/06/06 08:02:11;;;;;;;5.20;2.17;;;19.10;99.90;;;;;;4080179;29;20038;-69
2022/06/06 08:04:23;;;;;;;3.58;2.45;;;19.20;99.90;;;;;;4081589;29;20118;-67
2022/06/06 08:06:38;;;;;;;6.25;2.78;;;19.20;99.90;;;;;;4078253;28;20114;-66
2022/06/06 08:08:50;;;;;;;4.18;2.20;;;19.20;99.90;;;;;;4080804;28;20340;-67
2022/06/06 08:10:51;;;;;;;3.22;1.90;;;19.20;99.90;;;;;;4082761;28;20036;-66
2022/06/06 08:13:06;;;;;;;2.92;2.10;;;19.10;99.90;;;;;;4095554;29;20363;-66
2022/06/06 08:15:29;;;;;;;3.38;2.05;;;19.00;99.90;;;;;;4090083;28;20028;-67
2022/06/06 08:17:53;;;;;;;3.70;2.10;;;19.00;99.90;;;;;;4077350;28;20043;-66
2022/06/06 08:20:36;;;;;;;3.55;1.95;;;19.00;99.90;;;;;;4076471;28;20042;-66
2022/06/06 08:22:42;;;;;;;6.43;1.90;;;18.90;99.90;;;;;;4050865;29;20038;-66
2022/06/06 08:24:51;;;;;;;3.33;1.88;;;18.80;99.90;;;;;;4080544;28;20271;-65
2022/06/06 08:26:54;;;;;;;3.17;1.73;;;18.90;99.90;;;;;;4088163;28;20036;-66
2022/06/06 08:28:55;;;;;;;5.40;2.20;;;18.90;99.90;;;;;;4096901;28;20039;-66
2022/06/06 08:30:56;;;;;;;2.15;1.50;;;18.90;99.90;;;;;;4079280;28;20531;-67
2022/06/06 08:32:56;;;;;;;3.05;1.80;;;18.90;99.90;;;;;;4096345;28;20035;-67
2022/06/06 08:34:57;;;;;;;2.08;1.52;;;18.90;99.90;;;;;;4097073;28;20035;-68
2022/06/06 08:37:41;;;;;;;3.75;1.73;;;19.10;99.90;;;;;;4084258;28;20514;-67
2022/06/06 08:40:07;;;;;;;5.45;1.60;;;19.20;99.90;;;;;;4046260;29;20029;-67
2022/06/06 08:42:11;;;;;;;1.55;1.15;;;19.30;99.90;;;;;;4069682;29;20497;-66
2022/06/06 08:44:42;;;;;;;2.60;1.33;;;19.40;99.90;;;;;;4080431;29;20079;-67
2022/06/06 08:46:55;;;;;;;2.88;1.38;;;19.30;99.90;;;;;;4078416;29;20035;-68
2022/06/06 08:49:02;;;;;;;6.00;1.25;;;19.30;99.90;;;;;;4078842;28;20485;-68
2022/06/06 08:51:14;;;;;;;2.80;1.48;;;19.30;99.90;;;;;;4078144;29;20123;-68
2022/06/06 08:53:44;;;;;;;1.75;1.15;;;19.30;99.90;;;;;;4080471;28;20036;-68
2022/06/06 08:56:15;;;;;;;2.42;1.15;;;19.20;99.90;;;;;;4081913;29;20039;-68
2022/06/06 08:58:37;;;;;;;1.90;1.13;;;19.20;99.90;;;;;;4081363;28;20043;-68
2022/06/06 09:01:07;;;;;;;1.33;0.80;;;19.20;99.90;;;;;;4083185;28;20028;-68
2022/06/06 09:03:40;;;;;;;3.08;0.85;;;19.30;99.90;;;;;;4083512;29;20043;-69
2022/06/06 09:05:46;;;;;;;1.45;1.02;;;19.40;99.90;;;;;;4071434;28;20091;-68
2022/06/06 09:08:11;;;;;;;2.85;1.10;;;19.40;99.90;;;;;;4084935;28;20039;-68
2022/06/06 09:10:39;;;;;;;2.00;0.80;;;19.40;99.90;;;;;;4095208;28;20035;-69
2022/06/06 09:13:08;;;;;;;3.03;1.00;;;19.40;99.90;;;;;;4090409;28;20039;-68
2022/06/06 09:15:37;;;;;;;1.70;0.70;;;19.40;99.90;;;;;;4098815;28;20035;-68
2022/06/06 09:18:15;;;;;;;5.18;0.90;;;19.50;99.90;;;;;;4091801;29;20067;-68
2022/06/06 09:20:47;;;;;;;3.70;0.68;;;19.50;99.90;;;;;;4073802;29;20032;-69
2022/06/06 09:23:08;;;;;;;2.20;1.02;;;19.60;99.90;;;;;;4074888;29;20023;-69
2022/06/06 09:25:21;;;;;;;0.98;0.70;;;19.80;99.90;;;;;;4083249;29;20110;-69
2022/06/06 09:27:43;;;;;;;2.15;0.80;;;19.90;99.90;;;;;;4083428;29;20066;-68
2022/06/06 09:30:11;;;;;;;1.60;0.90;;;20.00;99.90;;;;;;4082938;29;20402;-70
2022/06/06 09:32:56;;;;;;;1.50;0.77;;;20.10;99.90;;;;;;4067482;29;20486;-68
2022/06/06 09:35:30;;;;;;;1.70;0.77;;;20.10;99.90;;;;;;4082429;29;20120;-68
2022/06/06 09:37:33;;;;;;;2.15;0.52;;;20.10;99.90;;;;;;4081494;28;20495;-68
2022/06/06 09:39:49;;;;;;;1.75;0.85;;;20.10;99.90;;;;;;4083374;29;20459;-68
2022/06/06 09:42:26;;;;;;;2.15;0.90;;;20.00;99.90;;;;;;4082697;29;20372;-69
2022/06/06 09:44:48;;;;;;;2.40;1.10;;;20.00;99.90;;;;;;4098424;28;20039;-68
2022/06/06 09:47:27;;;;;;;2.97;0.90;;;19.90;99.90;;;;;;4078781;29;20068;-70
2022/06/06 09:50:01;;;;;;;0.88;0.43;;;20.00;99.90;;;;;;4097638;28;20060;-69
2022/06/06 09:52:14;;;;;;;2.60;0.90;;;19.90;99.90;;;;;;4091967;28;20032;-69
2022/06/06 09:59:39;;;;;;;1.10;0.63;;;20.00;99.90;;;;;;4082979;29;20027;-69
2022/06/06 10:02:17;;;;;;;1.17;0.40;;;20.10;99.90;;;;;;4082488;29;20494;-68
2022/06/06 10:04:51;;;;;;;1.15;0.77;;;20.10;99.90;;;;;;4093960;28;20027;-69
2022/06/06 10:07:10;;;;;;;0.60;0.60;;;20.20;99.90;;;;;;4086458;28;20035;-69
2022/06/06 10:09:22;;;;;;;1.95;0.60;;;20.30;99.90;;;;;;4092889;28;20038;-69
2022/06/06 10:11:58;;;;;;;1.60;0.50;;;20.40;99.90;;;;;;4091157;28;20091;-69
2022/06/06 10:14:13;;;;;;;0.88;0.50;;;20.30;98.90;;;;;;4076888;29;20052;-69
2022/06/06 10:16:20;;;;;;;4.22;0.50;;;20.40;99.90;;;;;;4081140;29;20412;-70
2022/06/06 10:18:39;;;;;;;2.33;0.73;;;20.30;99.90;;;;;;4084435;28;20558;-69
2022/06/06 10:21:10;;;;;;;3.05;0.70;;;20.20;99.90;;;;;;4083560;28;20035;-69
2022/06/06 10:23:43;;;;;;;5.35;1.05;;;20.20;99.90;;;;;;4078839;28;20035;-69
2022/06/06 10:25:56;;;;;;;5.17;1.07;;;19.70;99.90;;;;;;4078840;29;20086;-68
2022/06/06 10:27:56;;;;;;;;;;;19.50;99.90;;;;;;4080755;29;20272;-68
2022/06/06 10:30:10;;;;;;;3.83;0.95;;;19.50;99.90;;;;;;4080455;29;19961;-68
2022/06/06 10:32:28;;;;;;;2.15;0.65;;;19.40;99.90;;;;;;4079309;29;20553;-68
2022/06/06 10:34:40;;;;;;;1.45;0.70;;;19.20;99.90;;;;;;4079051;29;20522;-68
2022/06/06 10:37:08;;;;;;;3.92;0.90;;;19.10;99.90;;;;;;4073095;28;20054;-68
2022/06/06 10:39:36;;;;;;;2.85;0.98;;;19.00;99.90;;;;;;4081589;28;20487;-68
2022/06/06 10:42:06;;;;;;;1.45;0.80;;;18.80;99.90;;;;;;4081481;29;20487;-68
2022/06/06 10:44:48;;;;;;;1.20;0.70;;;18.80;99.90;;;;;;4085448;28;20467;-68
2022/06/06 10:47:25;;;;;;;2.33;1.23;;;18.70;99.90;;;;;;4096327;28;20098;-69
2022/06/06 10:49:33;;;;;;;3.65;0.80;;;18.60;99.90;;;;;;4097378;28;20356;-68
2022/06/06 10:52:04;;;;;;;1.52;1.23;;;18.50;99.90;;;;;;4094670;28;20043;-67
2022/06/06 10:54:16;;;;;;;0.95;0.80;;;18.60;99.90;;;;;;4077053;29;20044;-68
2022/06/06 10:56:40;;;;;;;1.48;0.77;;;18.50;99.90;;;;;;4077491;29;20051;-68
2022/06/06 10:58:56;;;;;;;1.38;1.08;;;18.60;99.90;;;;;;4080061;29;20044;-68
2022/06/06 11:01:19;;;;;;;0.80;0.80;;;18.60;99.90;;;;;;4078184;29;20233;-68
2022/06/06 11:03:35;;;;;;;1.07;0.90;;;18.70;99.90;;;;;;4078348;29;20059;-68
2022/06/06 11:06:03;;;;;;;1.48;0.98;;;18.80;99.90;;;;;;4080073;29;20505;-68
2022/06/06 11:08:47;;;;;;;1.13;0.68;;;18.90;99.90;;;;;;4079825;28;20491;-67
2022/06/06 11:11:42;;;;;;;2.45;1.10;;;19.00;99.90;;;;;;4071565;29;20443;-67
2022/06/06 11:14:00;;;;;;;1.35;0.80;;;19.10;99.90;;;;;;4080729;29;20031;-66
2022/06/06 11:16:19;;;;;;;2.35;1.02;;;19.20;99.90;;;;;;4093898;29;20047;-67
2022/06/06 11:18:38;;;;;;;2.72;0.90;;;19.20;99.90;;;;;;4097448;28;20062;-67
2022/06/06 11:21:19;;;;;;;2.72;1.08;;;19.30;99.90;;;;;;4086296;28;20039;-68
2022/06/06 11:23:35;;;;;;;1.75;0.90;;;19.30;99.90;;;;;;4078338;28;20047;-68
2022/06/06 11:26:04;;;;;;;1.27;1.10;;;19.30;99.90;;;;;;4080839;29;20066;-68
2022/06/06 11:28:25;;;;;;;3.22;1.00;;;19.30;99.90;;;;;;4079309;29;20102;-68
2022/06/06 11:31:03;;;;;;;1.52;0.80;;;19.30;99.90;;;;;;4079828;29;20036;-68
2022/06/06 11:33:39;;;;;;;2.00;0.98;;;19.50;99.90;;;;;;4080454;29;20039;-68
2022/06/06 11:36:09;;;;;;;1.70;1.00;;;19.50;99.90;;;;;;4079898;29;20036;-68
2022/06/06 11:38:38;;;;;;;2.25;1.00;;;19.70;99.90;;;;;;4081070;28;20379;-69
2022/06/06 11:41:01;;;;;;;1.30;0.90;;;19.70;99.90;;;;;;4079032;28;20039;-69
2022/06/06 11:43:29;;;;;;;5.07;1.00;;;19.70;99.90;;;;;;4080914;28;20039;-69
2022/06/06 11:45:56;;;;;;;2.38;1.05;;;19.90;99.90;;;;;;4080639;28;20043;-69
2022/06/06 11:48:49;;;;;;;1.40;0.80;;;20.00;99.90;;;;;;4076458;28;20039;-69
2022/06/06 11:50:53;;;;;;;3.30;1.17;;;20.00;99.90;;;;;;4087531;28;20039;-69
2022/06/06 11:53:29;;;;;;;1.85;0.80;;;20.20;99.90;;;;;;4086786;28;20043;-69
2022/06/06 11:55:48;;;;;;;1.42;1.00;;;20.30;99.90;;;;;;4082556;28;20521;-69
2022/06/06 11:57:58;;;;;;;1.33;1.00;;;20.40;99.90;;;;;;4081105;28;20070;-69
2022/06/06 12:00:16;;;;;;;1.17;0.70;;;20.40;99.90;;;;;;4081283;28;20120;-69